Time;durP1;ratioP1;P1;durP2;ratioP2;P2;SDS_P1;SDS_P2;PMS_P1;PMS_P2;Temp;Humidity;BMP_temperature;BMP_pressure;BME280_temperature;BME280_humidity;BME280_pressure;Samples;Min_cycle;Max_cycle;Signal;HPM_P1;HPM_P2
2023/06/14 00:01:48;;;;;;;7.18;4.43;;;18.00;99.90;;;;;;5050421;28;20049;-53
2023/06/14 00:04:17;;;;;;;6.43;4.20;;;18.00;99.90;;;;;;5041695;28;20033;-52
2023/06/14 00:06:45;;;;;;;5.68;3.65;;;18.10;99.90;;;;;;5046016;28;20091;-51
2023/06/14 00:09:14;;;;;;;4.75;3.42;;;18.10;99.90;;;;;;5040961;28;20047;-54
2023/06/14 00:11:41;;;;;;;4.30;3.33;;;18.10;99.90;;;;;;5051204;28;20029;-50
2023/06/14 00:14:07;;;;;;;6.15;3.00;;;18.20;99.90;;;;;;5045297;28;20032;-54
2023/06/14 00:16:34;;;;;;;7.35;3.80;;;18.10;99.90;;;;;;5051435;28;20021;-52
2023/06/14 00:19:04;;;;;;;9.82;4.18;;;18.20;99.90;;;;;;5029062;28;20173;-51
2023/06/14 00:21:30;;;;;;;11.98;5.38;;;17.90;99.90;;;;;;5042133;28;20033;-51
2023/06/14 00:23:58;;;;;;;13.48;5.22;;;17.90;99.90;;;;;;5049836;28;20392;-51
2023/06/14 00:26:23;;;;;;;13.60;6.05;;;18.00;99.90;;;;;;5046018;28;20027;-53
2023/06/14 00:28:49;;;;;;;7.43;4.63;;;18.10;99.90;;;;;;5045583;28;20498;-54
2023/06/14 00:31:15;;;;;;;10.60;5.40;;;18.10;99.90;;;;;;5034430;28;20063;-52
2023/06/14 00:33:41;;;;;;;8.85;3.80;;;18.20;99.90;;;;;;5045407;28;20451;-53
2023/06/14 00:36:06;;;;;;;10.60;5.03;;;18.20;99.90;;;;;;5040560;28;20388;-51
2023/06/14 00:38:32;;;;;;;8.20;3.92;;;18.20;99.90;;;;;;5043247;28;20029;-53
2023/06/14 00:40:58;;;;;;;8.02;3.78;;;18.30;99.90;;;;;;5052657;28;20084;-52
2023/06/14 00:43:24;;;;;;;8.38;3.75;;;18.20;99.90;;;;;;5040559;28;20048;-53
2023/06/14 00:45:51;;;;;;;6.40;4.47;;;18.30;99.90;;;;;;5046236;28;20078;-52
2023/06/14 00:48:17;;;;;;;8.00;4.05;;;18.40;99.90;;;;;;5039669;28;20419;-54
2023/06/14 00:50:45;;;;;;;7.57;3.67;;;18.30;99.90;;;;;;5048943;28;20446;-54
2023/06/14 00:53:17;;;;;;;5.88;3.70;;;18.20;99.90;;;;;;5046015;28;20068;-54
2023/06/14 00:55:43;;;;;;;7.55;3.60;;;18.30;99.90;;;;;;5044464;28;20033;-53
2023/06/14 00:58:10;;;;;;;6.85;3.72;;;18.30;99.90;;;;;;5045991;28;20029;-54
2023/06/14 01:00:35;;;;;;;8.68;4.10;;;18.30;99.90;;;;;;5044453;28;20029;-51
2023/06/14 01:03:02;;;;;;;7.20;4.07;;;18.30;99.90;;;;;;5048677;28;20053;-55
2023/06/14 01:05:30;;;;;;;8.02;4.00;;;18.30;99.90;;;;;;5032708;28;20132;-52
2023/06/14 01:08:20;;;;;;;6.72;3.83;;;18.40;99.90;;;;;;5041611;28;20037;-51
2023/06/14 01:11:12;;;;;;;9.15;3.53;;;18.50;99.90;;;;;;5043979;28;20047;-53
2023/06/14 01:13:45;;;;;;;9.82;4.57;;;18.50;99.90;;;;;;5050800;28;20025;-52
2023/06/14 01:16:11;;;;;;;9.77;4.15;;;18.40;99.90;;;;;;5045953;28;20056;-54
2023/06/14 01:18:37;;;;;;;6.13;3.65;;;18.40;99.90;;;;;;5045829;28;20548;-51
2023/06/14 01:21:05;;;;;;;6.15;3.33;;;18.30;99.90;;;;;;5057986;28;20088;-52
2023/06/14 01:23:32;;;;;;;5.15;3.72;;;17.80;99.90;;;;;;5044325;28;20049;-52
2023/06/14 01:25:59;;;;;;;7.80;4.35;;;17.70;99.90;;;;;;5041057;28;20468;-50
2023/06/14 01:28:31;;;;;;;6.60;3.55;;;17.70;99.90;;;;;;5050215;28;20044;-54
2023/06/14 01:31:03;;;;;;;4.90;3.40;;;17.60;99.90;;;;;;5046600;28;20067;-52
2023/06/14 01:33:30;;;;;;;4.05;3.17;;;17.50;99.90;;;;;;5058848;28;20054;-53
2023/06/14 01:35:57;;;;;;;4.45;3.55;;;17.50;99.90;;;;;;5031284;28;20037;-53
2023/06/14 01:38:25;;;;;;;4.78;3.00;;;17.60;99.90;;;;;;5048645;28;20025;-53
2023/06/14 01:40:54;;;;;;;7.57;2.88;;;17.60;99.90;;;;;;5042749;28;20053;-51
2023/06/14 01:43:21;;;;;;;4.10;2.80;;;17.60;99.90;;;;;;5051992;28;20029;-52
2023/06/14 01:45:51;;;;;;;4.72;3.05;;;17.60;99.90;;;;;;5041554;28;20096;-51
2023/06/14 01:48:17;;;;;;;5.32;3.05;;;17.60;99.90;;;;;;5047803;28;20029;-52
2023/06/14 01:50:43;;;;;;;4.15;2.90;;;17.70;99.90;;;;;;5042540;28;20037;-52
2023/06/14 01:53:10;;;;;;;4.95;2.70;;;17.80;99.90;;;;;;5044156;28;20030;-54
2023/06/14 01:55:37;;;;;;;7.57;2.95;;;17.90;99.90;;;;;;5044175;28;20064;-52
2023/06/14 01:58:05;;;;;;;5.32;3.40;;;18.00;99.90;;;;;;5052823;28;20043;-51
2023/06/14 02:00:31;;;;;;;4.57;2.88;;;18.00;99.90;;;;;;5042865;28;20416;-54
2023/06/14 02:02:57;;;;;;;5.10;2.97;;;17.90;99.90;;;;;;5045767;28;20133;-51
2023/06/14 02:05:22;;;;;;;6.88;3.15;;;18.00;99.90;;;;;;5050295;28;20033;-53
2023/06/14 02:07:48;;;;;;;4.45;3.15;;;17.90;99.90;;;;;;5049689;28;20565;-53
2023/06/14 02:10:15;;;;;;;3.90;2.85;;;17.70;99.90;;;;;;5029327;28;20071;-54
2023/06/14 02:12:41;;;;;;;5.28;2.90;;;17.70;99.90;;;;;;5036329;28;20041;-53
2023/06/14 02:15:08;;;;;;;3.80;2.72;;;17.80;99.90;;;;;;5041369;28;20587;-53
2023/06/14 02:17:34;;;;;;;4.20;3.13;;;17.60;99.90;;;;;;5041919;28;20025;-53
2023/06/14 02:20:00;;;;;;;5.78;3.75;;;17.50;99.90;;;;;;5045944;28;20069;-52
2023/06/14 02:22:26;;;;;;;5.22;3.03;;;17.50;99.90;;;;;;5042387;28;20052;-51
2023/06/14 02:24:52;;;;;;;6.22;3.80;;;17.60;99.90;;;;;;5046272;28;21485;-54
2023/06/14 02:27:18;;;;;;;4.95;3.05;;;17.40;99.90;;;;;;5049929;28;20041;-52
2023/06/14 02:29:44;;;;;;;5.65;2.88;;;17.30;99.90;;;;;;5047208;28;20064;-53
2023/06/14 02:32:10;;;;;;;3.67;2.97;;;17.30;99.90;;;;;;5042432;28;20049;-51
2023/06/14 02:34:36;;;;;;;4.07;3.17;;;17.40;99.90;;;;;;5045013;28;20029;-53
2023/06/14 02:37:02;;;;;;;4.40;3.13;;;17.40;99.90;;;;;;5026619;28;20464;-53
2023/06/14 02:39:29;;;;;;;5.82;3.05;;;17.40;99.90;;;;;;5043921;28;20022;-53
2023/06/14 02:41:55;;;;;;;5.05;3.42;;;17.50;99.90;;;;;;5049434;28;20032;-54
2023/06/14 02:44:26;;;;;;;5.75;3.50;;;17.60;99.90;;;;;;5043178;28;20045;-53
2023/06/14 02:46:52;;;;;;;7.40;3.70;;;17.40;99.90;;;;;;5043147;28;20163;-50
2023/06/14 02:49:18;;;;;;;7.15;3.47;;;17.30;99.90;;;;;;5044361;28;20388;-51
2023/06/14 02:51:43;;;;;;;5.32;3.15;;;17.40;99.90;;;;;;5044230;28;20039;-53
2023/06/14 02:54:10;;;;;;;5.10;3.53;;;17.40;99.90;;;;;;5047601;28;20487;-52
2023/06/14 02:56:36;;;;;;;6.22;3.70;;;17.30;99.90;;;;;;5052575;28;20503;-53
2023/06/14 02:59:02;;;;;;;5.40;3.88;;;17.30;99.90;;;;;;5041111;28;20038;-53
2023/06/14 03:01:33;;;;;;;7.43;4.15;;;17.40;99.90;;;;;;5047001;28;20512;-56
2023/06/14 03:04:01;;;;;;;8.93;3.85;;;17.40;99.90;;;;;;5037566;28;20044;-52
2023/06/14 03:06:29;;;;;;;8.20;4.10;;;17.40;99.90;;;;;;5043591;28;20033;-52
2023/06/14 03:08:59;;;;;;;11.38;4.20;;;17.40;99.90;;;;;;5033327;28;20416;-54
2023/06/14 03:11:24;;;;;;;6.22;3.55;;;17.10;99.90;;;;;;5040727;28;20036;-54
2023/06/14 03:13:51;;;;;;;5.47;3.95;;;17.30;99.90;;;;;;5047511;28;20032;-51
2023/06/14 03:16:20;;;;;;;7.20;4.15;;;17.40;99.90;;;;;;5047917;28;20049;-51
2023/06/14 03:18:46;;;;;;;5.80;3.70;;;17.50;99.90;;;;;;5046218;28;20580;-54
2023/06/14 03:21:11;;;;;;;11.25;4.50;;;17.50;99.90;;;;;;5046883;28;20029;-52
2023/06/14 03:23:37;;;;;;;6.63;4.30;;;17.40;99.90;;;;;;5042919;28;20211;-51
2023/06/14 03:26:03;;;;;;;9.05;4.45;;;17.40;99.90;;;;;;5031282;28;20044;-54
2023/06/14 03:28:28;;;;;;;7.97;4.15;;;17.40;99.90;;;;;;5042135;28;20025;-54
2023/06/14 03:30:54;;;;;;;6.13;3.75;;;17.40;99.90;;;;;;5046920;28;20043;-53
2023/06/14 03:33:20;;;;;;;7.32;4.30;;;17.50;99.90;;;;;;5051169;28;20141;-53
2023/06/14 03:35:46;;;;;;;6.10;3.85;;;17.60;99.90;;;;;;5049154;28;20630;-54
2023/06/14 03:38:12;;;;;;;6.60;3.70;;;17.80;99.90;;;;;;5041996;28;20032;-52
2023/06/14 03:40:38;;;;;;;5.97;4.00;;;17.70;99.90;;;;;;5040439;28;20037;-53
2023/06/14 03:43:03;;;;;;;6.65;3.65;;;17.80;99.90;;;;;;5045747;28;20530;-51
2023/06/14 03:45:29;;;;;;;4.55;3.55;;;17.80;99.90;;;;;;5018791;28;20457;-52
2023/06/14 03:47:56;;;;;;;4.70;3.70;;;17.90;99.90;;;;;;5044950;28;20057;-52
2023/06/14 03:50:22;;;;;;;5.90;3.95;;;17.80;99.90;;;;;;5041510;28;20037;-53
2023/06/14 03:52:48;;;;;;;5.40;3.85;;;17.70;99.90;;;;;;5050630;28;20128;-50
2023/06/14 03:55:15;;;;;;;6.15;4.20;;;17.80;99.90;;;;;;5044310;28;20021;-51
2023/06/14 03:57:41;;;;;;;6.25;3.85;;;17.70;99.90;;;;;;5046460;28;20396;-53
2023/06/14 04:00:09;;;;;;;4.55;3.15;;;17.80;99.90;;;;;;5024029;28;20037;-51
2023/06/14 04:02:36;;;;;;;8.13;4.05;;;17.70;99.90;;;;;;5048548;28;20049;-53
2023/06/14 04:05:02;;;;;;;4.93;3.50;;;17.70;99.90;;;;;;5035867;28;20091;-53
2023/06/14 04:07:28;;;;;;;4.35;2.95;;;17.80;99.90;;;;;;5049963;28;20021;-50
2023/06/14 04:09:55;;;;;;;7.72;3.65;;;17.80;99.90;;;;;;5043850;28;20039;-53
2023/06/14 04:12:21;;;;;;;6.15;3.55;;;18.00;99.90;;;;;;5039146;28;20044;-50
2023/06/14 04:14:46;;;;;;;5.30;3.17;;;18.00;99.90;;;;;;5068057;28;20030;-53
2023/06/14 04:17:14;;;;;;;4.25;3.15;;;18.10;99.90;;;;;;5045722;28;20029;-55
2023/06/14 04:19:39;;;;;;;4.70;3.60;;;18.10;99.90;;;;;;5044849;28;20017;-51
2023/06/14 04:22:06;;;;;;;7.43;4.43;;;18.00;99.90;;;;;;5047463;28;20482;-51
2023/06/14 04:24:34;;;;;;;8.48;3.72;;;17.90;99.90;;;;;;5048621;28;20121;-53
2023/06/14 04:27:03;;;;;;;7.25;4.07;;;17.90;99.90;;;;;;5039799;28;20025;-52
2023/06/14 04:29:29;;;;;;;7.70;4.10;;;18.10;99.90;;;;;;5044079;28;20032;-53
2023/06/14 04:31:58;;;;;;;6.47;5.07;;;18.20;99.90;;;;;;5063131;28;20043;-53
2023/06/14 04:34:29;;;;;;;6.68;3.88;;;18.40;99.90;;;;;;5042285;28;20120;-52
2023/06/14 04:36:56;;;;;;;9.23;3.83;;;18.30;99.90;;;;;;5040787;28;20035;-50
2023/06/14 04:39:22;;;;;;;6.20;3.80;;;18.50;99.90;;;;;;5045922;28;20435;-51
2023/06/14 04:41:52;;;;;;;6.47;3.45;;;18.60;99.90;;;;;;5039977;28;20079;-52
2023/06/14 04:44:19;;;;;;;5.97;3.40;;;18.50;99.90;;;;;;5046794;28;20040;-52
2023/06/14 04:46:46;;;;;;;5.25;3.38;;;18.70;99.90;;;;;;5042570;28;20034;-52
2023/06/14 04:49:15;;;;;;;4.13;2.88;;;18.50;99.90;;;;;;5041291;28;20434;-53
2023/06/14 04:51:42;;;;;;;5.07;3.40;;;18.70;99.90;;;;;;5024086;28;20038;-54
2023/06/14 04:54:14;;;;;;;6.53;3.60;;;18.60;99.90;;;;;;5042670;28;20032;-51
2023/06/14 04:56:42;;;;;;;5.90;4.05;;;18.70;99.90;;;;;;5041900;28;20464;-53
2023/06/14 04:59:08;;;;;;;4.53;3.20;;;18.80;99.90;;;;;;5044555;28;20116;-53
2023/06/14 05:01:35;;;;;;;4.97;3.60;;;19.00;99.90;;;;;;5040709;28;20489;-51
2023/06/14 05:04:01;;;;;;;9.20;4.30;;;19.00;99.90;;;;;;5046320;28;20127;-52
2023/06/14 05:06:27;;;;;;;7.75;3.42;;;18.80;99.90;;;;;;5035461;28;20524;-54
2023/06/14 05:08:53;;;;;;;5.28;3.35;;;19.00;99.90;;;;;;5048190;28;20048;-53
2023/06/14 05:11:19;;;;;;;5.85;3.85;;;19.10;99.90;;;;;;5042814;28;20032;-53
2023/06/14 05:13:46;;;;;;;6.50;3.42;;;19.20;99.90;;;;;;5039070;28;20033;-54
2023/06/14 05:16:12;;;;;;;7.43;3.75;;;19.30;99.90;;;;;;5046877;28;20079;-51
2023/06/14 05:18:40;;;;;;;5.57;3.92;;;19.30;99.90;;;;;;5040562;28;20033;-51
2023/06/14 05:21:05;;;;;;;6.30;3.30;;;19.20;99.90;;;;;;5041463;28;20496;-51
2023/06/14 05:23:31;;;;;;;4.75;3.22;;;19.20;99.90;;;;;;5048759;28;20045;-53
2023/06/14 05:25:57;;;;;;;5.07;3.63;;;19.30;99.90;;;;;;5042158;28;20391;-52
2023/06/14 05:28:23;;;;;;;6.00;3.97;;;19.50;99.90;;;;;;5043544;28;20033;-52
2023/06/14 05:30:49;;;;;;;6.05;3.72;;;19.60;99.90;;;;;;5037837;28;20507;-52
2023/06/14 05:33:15;;;;;;;6.95;3.42;;;19.70;99.90;;;;;;5048308;28;20075;-53
2023/06/14 05:35:41;;;;;;;7.70;4.25;;;19.80;99.90;;;;;;5050322;28;20052;-53
2023/06/14 05:38:07;;;;;;;5.88;3.20;;;;;;;;;;5041027;28;20033;-52
2023/06/14 05:40:33;;;;;;;5.65;3.47;;;;;;;;;;5041581;28;20037;-54
2023/06/14 05:43:00;;;;;;;6.68;3.60;;;20.80;99.90;;;;;;5039843;28;20040;-53
2023/06/14 05:45:25;;;;;;;7.55;3.55;;;20.80;99.90;;;;;;5038758;28;20036;-53
2023/06/14 05:47:54;;;;;;;4.22;3.00;;;21.00;99.90;;;;;;5049234;28;20028;-50
2023/06/14 05:50:20;;;;;;;5.15;3.38;;;;;;;;;;5040613;28;20033;-51
2023/06/14 05:52:46;;;;;;;4.55;3.50;;;;;;;;;;5049484;28;20030;-50
2023/06/14 05:55:12;;;;;;;5.95;3.22;;;;;;;;;;5046643;28;20040;-52
2023/06/14 05:57:38;;;;;;;6.15;3.92;;;;;;;;;;5017270;28;20041;-51
2023/06/14 06:00:11;;;;;;;5.28;3.28;;;;;;;;;;5036408;28;20037;-52
2023/06/14 06:02:37;;;;;;;5.07;3.10;;;;;;;;;;5052273;28;20087;-50
2023/06/14 06:05:03;;;;;;;4.90;3.20;;;;;;;;;;5042635;28;20044;-52
2023/06/14 06:07:29;;;;;;;5.82;3.45;;;;;;;;;;5050456;28;20124;-53
2023/06/14 06:09:56;;;;;;;4.85;3.17;;;;;;;;;;5045437;28;20215;-51
2023/06/14 06:12:22;;;;;;;5.43;3.47;;;;;;;;;;5040779;28;20120;-51
2023/06/14 06:14:48;;;;;;;4.15;3.15;;;;;;;;;;5047256;28;20032;-51
2023/06/14 06:17:14;;;;;;;7.28;3.08;;;;;;;;;;5044691;28;20099;-51
2023/06/14 06:19:40;;;;;;;3.83;2.60;;;;;;;;;;5047969;28;20464;-51
2023/06/14 06:22:06;;;;;;;4.45;2.90;;;;;;;;;;5052247;28;20033;-51
2023/06/14 06:24:32;;;;;;;3.75;2.80;;;;;;;;;;5060111;28;20055;-50
2023/06/14 06:26:58;;;;;;;4.45;3.33;;;;;;;;;;5047719;28;20029;-50
2023/06/14 06:29:24;;;;;;;3.05;2.33;;;;;;;;;;5040485;28;20021;-51
2023/06/14 06:31:50;;;;;;;3.95;2.85;;;;;;;;;;5043022;28;20435;-51
2023/06/14 06:34:16;;;;;;;3.75;2.83;;;;;;;;;;5046439;28;20059;-51
2023/06/14 06:36:43;;;;;;;5.15;2.75;;;;;;;;;;5051592;28;20025;-51
2023/06/14 06:39:10;;;;;;;3.25;2.28;;;;;;;;;;5052814;28;20040;-51
2023/06/14 06:41:37;;;;;;;2.85;2.33;;;;;;;;;;5027168;28;20664;-52
2023/06/14 06:44:03;;;;;;;4.22;2.28;;;22.60;99.90;;;;;;5039293;28;20048;-50
2023/06/14 06:46:29;;;;;;;3.95;2.20;;;22.70;99.90;;;;;;5047195;28;20034;-50
2023/06/14 06:48:55;;;;;;;4.10;2.50;;;;;;;;;;5043543;28;20032;-51
2023/06/14 06:51:21;;;;;;;3.70;2.15;;;;;;;;;;5047627;28;20112;-50
2023/06/14 06:53:53;;;;;;;4.90;2.20;;;;;;;;;;5042282;28;20449;-51
2023/06/14 06:56:19;;;;;;;2.20;1.80;;;;;;;;;;5052402;28;20039;-51
2023/06/14 06:58:45;;;;;;;3.90;2.30;;;;;;;;;;5021350;28;20142;-50
2023/06/14 07:01:13;;;;;;;2.92;1.77;;;;;;;;;;5034284;28;20116;-50
2023/06/14 07:03:39;;;;;;;7.88;2.58;;;;;;;;;;5015911;28;20071;-50
2023/06/14 07:06:05;;;;;;;2.63;1.85;;;;;;;;;;5050861;28;20041;-50
2023/06/14 07:08:31;;;;;;;3.30;2.13;;;;;;;;;;5026374;28;20047;-52
2023/06/14 07:10:58;;;;;;;2.08;1.40;;;;;;;;;;4999355;28;20436;-50
2023/06/14 07:13:24;;;;;;;3.50;1.80;;;;;;;;;;5051952;28;20028;-52
2023/06/14 07:15:53;;;;;;;2.38;1.95;;;;;;;;;;5052816;28;20040;-51
2023/06/14 07:18:19;;;;;;;1.83;1.30;;;;;;;;;;5047187;28;20555;-51
2023/06/14 07:20:47;;;;;;;4.03;1.90;;;;;;;;;;5026254;28;20485;-51
2023/06/14 07:23:13;;;;;;;2.00;1.50;;;;;;;;;;5052261;28;20055;-51
2023/06/14 07:25:39;;;;;;;1.10;1.00;;;;;;;;;;5052030;28;20040;-51
2023/06/14 07:28:05;;;;;;;1.90;1.50;;;;;;;;;;5045682;28;20044;-50
2023/06/14 07:30:31;;;;;;;3.13;1.70;;;;;;;;;;5044305;28;20031;-51
2023/06/14 07:32:57;;;;;;;1.92;1.45;;;;;;;;;;5040871;28;20025;-51
2023/06/14 07:35:23;;;;;;;1.67;1.42;;;;;;;;;;5038404;28;20033;-52
2023/06/14 07:37:49;;;;;;;1.98;1.45;;;;;;;;;;5038940;28;20039;-52
2023/06/14 07:40:16;;;;;;;1.85;1.20;;;;;;;;;;5028979;28;20374;-50
2023/06/14 07:42:42;;;;;;;3.45;1.80;;;;;;;;;;5044686;28;20072;-51
2023/06/14 07:45:08;;;;;;;1.92;1.45;;;;;;;;;;5057994;28;20040;-51
2023/06/14 07:47:34;;;;;;;1.92;1.30;;;;;;;;;;5037485;28;20032;-51
2023/06/14 07:50:00;;;;;;;2.20;1.50;;;24.00;99.90;;;;;;5051144;28;20350;-57
2023/06/14 07:52:26;;;;;;;2.13;1.42;;;24.80;99.90;;;;;;5050670;28;20032;-52
2023/06/14 07:54:52;;;;;;;3.83;1.70;;;23.70;99.90;;;;;;5048865;28;20033;-51
2023/06/14 07:57:20;;;;;;;1.65;1.25;;;;;;;;;;5049524;28;20033;-52
2023/06/14 07:59:46;;;;;;;3.17;1.48;;;24.20;99.90;;;;;;5063247;28;20037;-51
2023/06/14 08:02:11;;;;;;;2.30;1.77;;;24.10;99.90;;;;;;5042364;28;20057;-51
2023/06/14 08:04:37;;;;;;;2.95;1.77;;;23.90;99.90;;;;;;5047729;28;20482;-51
2023/06/14 08:07:04;;;;;;;1.70;1.42;;;23.80;99.90;;;;;;5043975;28;20107;-50
2023/06/14 08:09:29;;;;;;;4.75;1.58;;;23.70;99.90;;;;;;5041514;28;20027;-51
2023/06/14 08:11:56;;;;;;;1.88;1.50;;;;;;;;;;5044453;28;20022;-51
2023/06/14 08:14:22;;;;;;;2.58;1.65;;;22.90;99.90;;;;;;5042353;28;20032;-50
2023/06/14 08:16:48;;;;;;;1.83;1.38;;;23.20;99.90;;;;;;5044565;28;20046;-51
2023/06/14 08:19:16;;;;;;;2.58;1.23;;;23.70;99.90;;;;;;5047771;28;20487;-50
2023/06/14 08:21:43;;;;;;;4.65;1.60;;;23.40;99.90;;;;;;5049200;28;20044;-50
2023/06/14 08:24:12;;;;;;;3.15;1.80;;;23.60;99.90;;;;;;5049732;28;20124;-51
2023/06/14 08:26:39;;;;;;;2.13;1.40;;;23.30;99.90;;;;;;5042985;28;20461;-52
2023/06/14 08:29:06;;;;;;;3.85;1.52;;;23.10;99.90;;;;;;5041789;28;20033;-51
2023/06/14 08:31:34;;;;;;;3.63;1.70;;;23.60;99.90;;;;;;5047681;28;20044;-50
2023/06/14 08:33:59;;;;;;;2.90;1.55;;;23.50;99.90;;;;;;5043769;28;20597;-52
2023/06/14 08:36:25;;;;;;;3.00;1.60;;;23.70;99.90;;;;;;5038254;28;20136;-53
2023/06/14 08:38:51;;;;;;;2.72;1.63;;;23.90;99.90;;;;;;5034058;28;20641;-51
2023/06/14 08:41:27;;;;;;;3.30;1.98;;;24.10;99.90;;;;;;5042965;28;20045;-50
2023/06/14 08:43:52;;;;;;;5.10;2.30;;;24.20;99.90;;;;;;5036803;28;20045;-53
2023/06/14 08:46:22;;;;;;;3.38;2.05;;;23.90;99.90;;;;;;5045781;28;20037;-52
2023/06/14 08:48:52;;;;;;;3.45;2.20;;;23.80;99.90;;;;;;5027288;28;20098;-53
2023/06/14 08:51:22;;;;;;;3.00;2.15;;;23.70;99.90;;;;;;5039572;28;20037;-57
2023/06/14 08:53:54;;;;;;;2.95;1.65;;;23.70;99.90;;;;;;5034107;28;20041;-51
2023/06/14 08:56:20;;;;;;;2.22;1.65;;;23.70;99.90;;;;;;5029962;28;20037;-53
2023/06/14 08:58:48;;;;;;;3.55;2.00;;;;;;;;;;5037467;28;20044;-52
2023/06/14 09:01:16;;;;;;;2.42;1.77;;;;;;;;;;5042219;28;20049;-52
2023/06/14 09:03:42;;;;;;;3.60;1.98;;;;;;;;;;5036850;28;20065;-52
2023/06/14 09:06:13;;;;;;;3.47;2.17;;;24.80;99.90;;;;;;5039884;28;20354;-52
2023/06/14 09:08:48;;;;;;;4.15;1.75;;;24.50;99.90;;;;;;5046136;28;20042;-51
2023/06/14 09:11:15;;;;;;;2.78;1.90;;;24.40;99.90;;;;;;5041149;28;20038;-53
2023/06/14 09:13:42;;;;;;;3.35;2.00;;;24.30;99.90;;;;;;5044011;28;20816;-53
2023/06/14 09:16:08;;;;;;;5.57;2.22;;;24.30;99.90;;;;;;5045204;28;20034;-51
2023/06/14 09:18:41;;;;;;;3.03;2.08;;;24.10;99.90;;;;;;5048684;28;20029;-54
2023/06/14 09:21:07;;;;;;;3.35;1.85;;;24.20;99.90;;;;;;5040039;28;20025;-52
2023/06/14 09:23:37;;;;;;;3.03;2.08;;;24.20;99.90;;;;;;5038546;28;20038;-52
2023/06/14 09:26:08;;;;;;;4.45;2.47;;;24.10;99.90;;;;;;5048465;28;20094;-52
2023/06/14 09:28:33;;;;;;;2.75;1.95;;;24.20;99.90;;;;;;5046176;28;20486;-53
2023/06/14 09:31:00;;;;;;;3.90;2.08;;;24.10;99.90;;;;;;5046416;28;20025;-53
2023/06/14 09:33:27;;;;;;;4.07;1.92;;;24.20;99.90;;;;;;5047952;28;20044;-53
2023/06/14 09:35:54;;;;;;;6.15;2.10;;;24.20;99.90;;;;;;5053473;28;20467;-53
2023/06/14 09:38:20;;;;;;;3.70;2.00;;;;;;;;;;5049535;28;20115;-54
2023/06/14 09:40:47;;;;;;;2.58;1.77;;;;;;;;;;5045147;28;20029;-53
2023/06/14 09:43:13;;;;;;;2.50;1.50;;;;;;;;;;5043426;28;20450;-52
2023/06/14 09:45:39;;;;;;;3.25;1.73;;;24.70;99.90;;;;;;5048918;28;20112;-53
2023/06/14 09:48:08;;;;;;;2.42;1.60;;;24.60;99.90;;;;;;5045304;28;20111;-52
2023/06/14 09:50:34;;;;;;;3.53;1.70;;;;;;;;;;5050497;28;20033;-54
2023/06/14 09:53:12;;;;;;;3.20;1.75;;;;;;;;;;5047606;28;20040;-54
2023/06/14 09:55:39;;;;;;;2.72;1.70;;;;;;;;;;5032675;28;20121;-53
2023/06/14 09:58:06;;;;;;;1.67;1.40;;;;;;;;;;5043864;28;20121;-55
2023/06/14 10:00:34;;;;;;;3.53;1.60;;;;;;;;;;5049175;28;20418;-52
2023/06/14 10:03:07;;;;;;;1.80;1.33;;;25.60;99.90;;;;;;5044194;28;20052;-53
2023/06/14 10:05:35;;;;;;;1.45;1.23;;;;;;;;;;5041305;28;20045;-54
2023/06/14 10:08:05;;;;;;;2.65;1.50;;;;;;;;;;5046881;28;20116;-53
2023/06/14 10:10:31;;;;;;;3.67;1.58;;;25.70;99.90;;;;;;5049453;28;20523;-53
2023/06/14 10:12:57;;;;;;;2.72;1.45;;;25.70;99.90;;;;;;5049673;28;20060;-53
2023/06/14 10:15:46;;;;;;;2.15;1.50;;;25.40;99.90;;;;;;5060658;28;20107;-54
2023/06/14 10:18:25;;;;;;;2.13;1.30;;;25.40;99.90;;;;;;5047369;28;20040;-53
2023/06/14 10:21:11;;;;;;;2.03;1.45;;;25.10;99.90;;;;;;5052007;28;20115;-54
2023/06/14 10:23:44;;;;;;;3.17;1.67;;;25.50;99.90;;;;;;5046913;28;20041;-51
2023/06/14 10:26:23;;;;;;;3.70;2.30;;;25.40;99.90;;;;;;5049817;28;20098;-53
2023/06/14 10:29:01;;;;;;;2.15;1.60;;;25.20;99.90;;;;;;5050170;28;20032;-52
2023/06/14 10:31:45;;;;;;;4.07;2.13;;;25.00;99.90;;;;;;5045396;28;20095;-53
2023/06/14 10:34:20;;;;;;;2.20;1.40;;;25.30;99.90;;;;;;5051140;28;20099;-54
2023/06/14 10:36:59;;;;;;;4.30;1.77;;;25.20;99.90;;;;;;5047982;28;20032;-53
2023/06/14 10:39:25;;;;;;;2.90;1.67;;;25.20;99.90;;;;;;5034232;28;20444;-53
2023/06/14 10:41:56;;;;;;;3.88;2.08;;;25.30;99.90;;;;;;5050496;28;20111;-52
2023/06/14 10:44:21;;;;;;;3.38;1.90;;;25.20;99.90;;;;;;5048451;28;20039;-53
2023/06/14 10:46:49;;;;;;;2.53;1.90;;;25.20;99.90;;;;;;5045605;28;20030;-53
2023/06/14 10:49:18;;;;;;;2.10;1.63;;;25.10;99.90;;;;;;5043010;28;20116;-54
2023/06/14 10:51:48;;;;;;;1.98;1.50;;;25.00;99.90;;;;;;5041455;28;20033;-53
2023/06/14 10:54:15;;;;;;;3.05;1.73;;;25.20;99.90;;;;;;5045975;28;20040;-54
2023/06/14 10:56:48;;;;;;;3.95;1.83;;;25.40;99.90;;;;;;5046625;28;20364;-53
2023/06/14 10:59:15;;;;;;;4.40;1.90;;;25.40;99.90;;;;;;5047881;28;20106;-53
2023/06/14 11:02:27;;;;;;;2.38;1.70;;;25.40;99.90;;;;;;5046584;28;20044;-53
2023/06/14 11:04:53;;;;;;;2.20;1.63;;;25.60;99.90;;;;;;5039350;28;20044;-52
2023/06/14 11:07:30;;;;;;;3.53;2.00;;;;;;;;;;5045913;28;20033;-52
2023/06/14 11:10:03;;;;;;;2.25;1.55;;;;;;;;;;5050185;28;20051;-53
2023/06/14 11:12:32;;;;;;;2.70;1.92;;;;;;;;;;5038432;28;20473;-54
2023/06/14 11:14:58;;;;;;;2.63;2.00;;;26.00;99.90;;;;;;5032438;28;20036;-52
2023/06/14 11:17:25;;;;;;;3.00;1.95;;;26.10;99.90;;;;;;5050947;28;20128;-54
2023/06/14 11:19:50;;;;;;;5.45;2.78;;;26.30;99.90;;;;;;5046110;28;20091;-52
2023/06/14 11:22:16;;;;;;;6.30;2.35;;;26.30;99.90;;;;;;5047012;28;20029;-52
2023/06/14 11:24:43;;;;;;;3.00;1.75;;;26.60;99.90;;;;;;5038911;28;20496;-53
2023/06/14 11:27:09;;;;;;;2.58;1.73;;;26.50;99.90;;;;;;5044184;28;20083;-52
2023/06/14 11:29:35;;;;;;;2.85;2.30;;;26.30;99.90;;;;;;5047632;28;20509;-52
2023/06/14 11:32:01;;;;;;;2.80;1.95;;;26.40;99.90;;;;;;5052193;28;20044;-52
2023/06/14 11:34:27;;;;;;;2.15;1.50;;;;;;;;;;5012220;28;20470;-53
2023/06/14 11:36:53;;;;;;;2.33;1.92;;;;;;;;;;5047399;28;20025;-52
2023/06/14 11:39:24;;;;;;;2.28;1.48;;;;;;;;;;5047007;28;20044;-52
2023/06/14 11:41:51;;;;;;;4.90;1.95;;;;;;;;;;5039697;28;20060;-53
2023/06/14 11:44:16;;;;;;;3.55;1.88;;;26.80;99.90;;;;;;5046096;28;20045;-52
2023/06/14 11:46:42;;;;;;;2.00;1.67;;;;;;;;;;5032695;28;20049;-53
2023/06/14 11:49:09;;;;;;;3.15;1.90;;;27.50;99.90;;;;;;5035201;28;20182;-52
2023/06/14 11:51:36;;;;;;;3.65;1.70;;;27.10;99.90;;;;;;5041821;28;20061;-53
2023/06/14 11:54:02;;;;;;;2.70;1.77;;;27.10;99.90;;;;;;5053197;28;20035;-52
2023/06/14 11:56:29;;;;;;;2.88;2.08;;;27.00;99.90;;;;;;5043342;28;20391;-53
2023/06/14 11:58:59;;;;;;;2.40;1.70;;;;;;;;;;5039997;28;20021;-54
2023/06/14 12:01:25;;;;;;;2.60;1.80;;;;;;;;;;5040010;28;20518;-52
2023/06/14 12:03:53;;;;;;;3.42;2.05;;;;;;;;;;5044818;28;20140;-51
2023/06/14 12:06:32;;;;;;;4.40;1.92;;;;;;;;;;5044387;28;20029;-53
2023/06/14 12:08:58;;;;;;;3.75;1.75;;;27.20;99.90;;;;;;5039395;28;20029;-53
2023/06/14 12:11:28;;;;;;;2.40;1.60;;;27.00;99.90;;;;;;5043941;28;20017;-53
2023/06/14 12:13:54;;;;;;;3.15;1.80;;;27.00;99.70;;;;;;5046143;28;20028;-53
2023/06/14 12:16:20;;;;;;;2.35;1.80;;;27.00;99.90;;;;;;5048790;28;20142;-54
2023/06/14 12:18:46;;;;;;;2.13;1.60;;;27.10;99.90;;;;;;5043648;28;20053;-52
2023/06/14 12:21:11;;;;;;;3.35;2.13;;;27.00;99.80;;;;;;5047380;28;20052;-53
2023/06/14 12:23:44;;;;;;;3.83;1.85;;;27.30;99.90;;;;;;5047957;28;20037;-52
2023/06/14 12:26:16;;;;;;;2.65;1.60;;;27.60;99.80;;;;;;5045173;28;20029;-53
2023/06/14 12:28:44;;;;;;;2.40;1.65;;;28.20;99.90;;;;;;5049263;28;20476;-53
2023/06/14 12:31:12;;;;;;;3.38;2.00;;;;;;;;;;5043931;28;20473;-53
2023/06/14 12:33:38;;;;;;;3.38;2.10;;;28.40;99.90;;;;;;5043234;28;20488;-52
2023/06/14 12:36:06;;;;;;;2.40;2.03;;;28.50;99.90;;;;;;5068128;28;20028;-54
2023/06/14 12:38:33;;;;;;;2.80;1.98;;;28.50;99.50;;;;;;5008905;28;20052;-52
2023/06/14 12:40:59;;;;;;;2.22;1.80;;;;;;;;;;5029275;28;20041;-51
2023/06/14 12:43:24;;;;;;;3.83;1.98;;;28.00;99.90;;;;;;5049487;28;20099;-52
2023/06/14 12:45:51;;;;;;;4.63;2.10;;;27.60;99.60;;;;;;5037974;28;20495;-53
2023/06/14 12:48:16;;;;;;;3.95;1.77;;;28.10;99.90;;;;;;5068421;28;20454;-53
2023/06/14 12:50:42;;;;;;;8.68;5.78;;;28.10;99.70;;;;;;5063097;28;20033;-52
2023/06/14 12:53:08;;;;;;;3.05;2.08;;;;;;;;;;5043001;28;20068;-54
2023/06/14 12:55:35;;;;;;;3.10;2.00;;;28.50;99.90;;;;;;5060115;28;20134;-53
2023/06/14 12:58:00;;;;;;;3.00;1.80;;;28.40;99.90;;;;;;5060400;28;20531;-53
2023/06/14 13:00:26;;;;;;;2.70;1.75;;;27.90;99.90;;;;;;5030450;28;20071;-54
2023/06/14 13:02:53;;;;;;;2.22;1.75;;;27.80;99.90;;;;;;5038014;28;20048;-53
2023/06/14 13:05:18;;;;;;;2.22;1.63;;;27.70;99.90;;;;;;5067924;28;20472;-52
2023/06/14 13:07:44;;;;;;;3.20;2.33;;;28.10;99.90;;;;;;5049777;28;20041;-54
2023/06/14 13:10:10;;;;;;;3.30;1.92;;;28.10;99.70;;;;;;5046069;28;20445;-52
2023/06/14 13:12:36;;;;;;;2.45;2.20;;;28.30;99.80;;;;;;5048995;28;20021;-52
2023/06/14 13:15:02;;;;;;;3.80;2.13;;;27.90;99.40;;;;;;5042724;28;20024;-52